sensor_id;sensor_type;location;lat;lon;timestamp;temperature;humidity
67974;DHT22;54756;51.140;6.952;2023-04-25T00:00:05;4.30;94.00
67974;DHT22;54756;51.140;6.952;2023-04-25T00:02:07;4.20;94.00
67974;DHT22;54756;51.140;6.952;2023-04-25T00:04:08;4.20;94.20
67974;DHT22;54756;51.140;6.952;2023-04-25T00:06:09;4.10;94.30
67974;DHT22;54756;51.140;6.952;2023-04-25T00:08:10;4.10;94.50
67974;DHT22;54756;51.140;6.952;2023-04-25T00:10:11;4.10;94.50
67974;DHT22;54756;51.140;6.952;2023-04-25T00:12:12;4.10;94.80
67974;DHT22;54756;51.140;6.952;2023-04-25T00:14:12;4.10;94.90
67974;DHT22;54756;51.140;6.952;2023-04-25T00:16:13;4.10;94.80
67974;DHT22;54756;51.140;6.952;2023-04-25T00:18:15;4.00;94.80
67974;DHT22;54756;51.140;6.952;2023-04-25T00:20:16;4.00;95.00
67974;DHT22;54756;51.140;6.952;2023-04-25T00:22:17;4.00;95.20
67974;DHT22;54756;51.140;6.952;2023-04-25T00:24:17;4.00;95.20
67974;DHT22;54756;51.140;6.952;2023-04-25T00:26:18;4.00;95.30
67974;DHT22;54756;51.140;6.952;2023-04-25T00:28:18;4.00;95.40
67974;DHT22;54756;51.140;6.952;2023-04-25T00:30:19;4.00;95.50
67974;DHT22;54756;51.140;6.952;2023-04-25T00:32:20;4.00;95.60
67974;DHT22;54756;51.140;6.952;2023-04-25T00:34:20;4.10;96.10
67974;DHT22;54756;51.140;6.952;2023-04-25T00:36:21;4.20;96.60
67974;DHT22;54756;51.140;6.952;2023-04-25T00:38:22;4.30;96.90
67974;DHT22;54756;51.140;6.952;2023-04-25T00:40:22;4.50;97.50
67974;DHT22;54756;51.140;6.952;2023-04-25T00:42:23;4.60;97.60
67974;DHT22;54756;51.140;6.952;2023-04-25T00:44:24;4.80;97.80
67974;DHT22;54756;51.140;6.952;2023-04-25T00:46:25;4.90;97.90
67974;DHT22;54756;51.140;6.952;2023-04-25T00:48:26;5.00;97.90
67974;DHT22;54756;51.140;6.952;2023-04-25T00:50:26;5.10;97.80
67974;DHT22;54756;51.140;6.952;2023-04-25T00:52:27;5.20;97.60
67974;DHT22;54756;51.140;6.952;2023-04-25T00:54:28;5.30;97.50
67974;DHT22;54756;51.140;6.952;2023-04-25T00:56:28;5.30;97.40
67974;DHT22;54756;51.140;6.952;2023-04-25T00:58:29;5.40;97.30
67974;DHT22;54756;51.140;6.952;2023-04-25T01:00:30;5.50;97.20
67974;DHT22;54756;51.140;6.952;2023-04-25T01:02:32;5.50;97.20
67974;DHT22;54756;51.140;6.952;2023-04-25T01:04:32;5.60;97.20
67974;DHT22;54756;51.140;6.952;2023-04-25T01:06:33;5.60;97.10
67974;DHT22;54756;51.140;6.952;2023-04-25T01:08:34;5.70;96.90
67974;DHT22;54756;51.140;6.952;2023-04-25T01:10:35;5.80;96.80
67974;DHT22;54756;51.140;6.952;2023-04-25T01:12:36;5.80;96.70
67974;DHT22;54756;51.140;6.952;2023-04-25T01:14:36;5.90;96.60
67974;DHT22;54756;51.140;6.952;2023-04-25T01:16:37;5.90;96.30
67974;DHT22;54756;51.140;6.952;2023-04-25T01:18:41;5.90;96.10
67974;DHT22;54756;51.140;6.952;2023-04-25T01:20:43;6.00;96.00
67974;DHT22;54756;51.140;6.952;2023-04-25T01:22:44;6.10;95.70
67974;DHT22;54756;51.140;6.952;2023-04-25T01:24:45;6.20;95.50
67974;DHT22;54756;51.140;6.952;2023-04-25T01:26:46;6.20;95.50
67974;DHT22;54756;51.140;6.952;2023-04-25T01:28:50;6.30;95.30
67974;DHT22;54756;51.140;6.952;2023-04-25T01:30:51;6.30;95.10
67974;DHT22;54756;51.140;6.952;2023-04-25T01:32:54;6.30;94.90
67974;DHT22;54756;51.140;6.952;2023-04-25T01:34:55;6.40;94.70
67974;DHT22;54756;51.140;6.952;2023-04-25T01:36:55;6.40;94.70
67974;DHT22;54756;51.140;6.952;2023-04-25T01:38:56;6.40;94.60
67974;DHT22;54756;51.140;6.952;2023-04-25T01:40:57;6.40;94.50
67974;DHT22;54756;51.140;6.952;2023-04-25T01:42:58;6.50;94.40
67974;DHT22;54756;51.140;6.952;2023-04-25T01:44:58;6.50;94.40
67974;DHT22;54756;51.140;6.952;2023-04-25T01:46:59;6.50;94.40
67974;DHT22;54756;51.140;6.952;2023-04-25T01:49:00;6.50;94.30
67974;DHT22;54756;51.140;6.952;2023-04-25T01:51:01;6.50;94.20
67974;DHT22;54756;51.140;6.952;2023-04-25T01:53:01;6.50;94.10
67974;DHT22;54756;51.140;6.952;2023-04-25T01:55:02;6.50;94.00
67974;DHT22;54756;51.140;6.952;2023-04-25T01:57:03;6.50;94.00
67974;DHT22;54756;51.140;6.952;2023-04-25T01:59:04;6.50;93.80
67974;DHT22;54756;51.140;6.952;2023-04-25T02:01:05;6.40;93.50
67974;DHT22;54756;51.140;6.952;2023-04-25T02:03:06;6.40;93.80
67974;DHT22;54756;51.140;6.952;2023-04-25T02:05:07;6.30;93.80
67974;DHT22;54756;51.140;6.952;2023-04-25T02:07:08;6.20;94.00
67974;DHT22;54756;51.140;6.952;2023-04-25T02:09:08;6.20;94.10
67974;DHT22;54756;51.140;6.952;2023-04-25T02:11:09;6.10;94.10
67974;DHT22;54756;51.140;6.952;2023-04-25T02:13:09;6.00;94.30
67974;DHT22;54756;51.140;6.952;2023-04-25T02:15:10;6.00;94.80
67974;DHT22;54756;51.140;6.952;2023-04-25T02:17:11;6.00;94.80
67974;DHT22;54756;51.140;6.952;2023-04-25T02:19:12;6.00;94.80
67974;DHT22;54756;51.140;6.952;2023-04-25T02:21:13;5.90;94.90
67974;DHT22;54756;51.140;6.952;2023-04-25T02:23:13;6.00;95.30
67974;DHT22;54756;51.140;6.952;2023-04-25T02:25:15;6.00;95.40
67974;DHT22;54756;51.140;6.952;2023-04-25T02:27:16;6.00;95.40
67974;DHT22;54756;51.140;6.952;2023-04-25T02:29:16;6.10;95.40
67974;DHT22;54756;51.140;6.952;2023-04-25T02:31:17;6.10;95.40
67974;DHT22;54756;51.140;6.952;2023-04-25T02:33:18;6.20;95.50
67974;DHT22;54756;51.140;6.952;2023-04-25T02:35:18;6.20;95.30
67974;DHT22;54756;51.140;6.952;2023-04-25T02:37:19;6.20;95.20
67974;DHT22;54756;51.140;6.952;2023-04-25T02:39:20;6.30;95.10
67974;DHT22;54756;51.140;6.952;2023-04-25T02:41:22;6.30;95.00
67974;DHT22;54756;51.140;6.952;2023-04-25T02:43:23;6.30;94.90
67974;DHT22;54756;51.140;6.952;2023-04-25T02:45:23;6.30;94.80
67974;DHT22;54756;51.140;6.952;2023-04-25T02:47:24;6.30;94.80
67974;DHT22;54756;51.140;6.952;2023-04-25T02:49:24;6.30;94.70
67974;DHT22;54756;51.140;6.952;2023-04-25T02:51:25;6.30;94.60
67974;DHT22;54756;51.140;6.952;2023-04-25T02:53:26;6.30;94.70
67974;DHT22;54756;51.140;6.952;2023-04-25T02:55:27;6.30;94.70
67974;DHT22;54756;51.140;6.952;2023-04-25T02:57:27;6.30;94.70
67974;DHT22;54756;51.140;6.952;2023-04-25T02:59:28;6.30;94.60
67974;DHT22;54756;51.140;6.952;2023-04-25T03:01:29;6.30;94.50
67974;DHT22;54756;51.140;6.952;2023-04-25T03:03:29;6.30;94.50
67974;DHT22;54756;51.140;6.952;2023-04-25T03:05:30;6.30;94.40
67974;DHT22;54756;51.140;6.952;2023-04-25T03:07:30;6.30;94.30
67974;DHT22;54756;51.140;6.952;2023-04-25T03:09:31;6.30;94.20
67974;DHT22;54756;51.140;6.952;2023-04-25T03:11:32;6.30;94.30
67974;DHT22;54756;51.140;6.952;2023-04-25T03:13:32;6.30;94.40
67974;DHT22;54756;51.140;6.952;2023-04-25T03:15:33;6.30;94.50
67974;DHT22;54756;51.140;6.952;2023-04-25T03:17:33;6.30;94.50
67974;DHT22;54756;51.140;6.952;2023-04-25T03:19:34;6.30;94.40
67974;DHT22;54756;51.140;6.952;2023-04-25T03:21:35;6.30;94.40
67974;DHT22;54756;51.140;6.952;2023-04-25T03:23:36;6.40;94.50
67974;DHT22;54756;51.140;6.952;2023-04-25T03:25:36;6.40;94.30
67974;DHT22;54756;51.140;6.952;2023-04-25T03:27:37;6.40;94.30
67974;DHT22;54756;51.140;6.952;2023-04-25T03:29:37;6.40;94.20
67974;DHT22;54756;51.140;6.952;2023-04-25T03:31:38;6.40;94.20
67974;DHT22;54756;51.140;6.952;2023-04-25T03:33:38;6.40;94.10
67974;DHT22;54756;51.140;6.952;2023-04-25T03:35:39;6.40;94.00
67974;DHT22;54756;51.140;6.952;2023-04-25T03:37:40;6.40;94.10
67974;DHT22;54756;51.140;6.952;2023-04-25T03:39:40;6.50;94.20
67974;DHT22;54756;51.140;6.952;2023-04-25T03:41:41;6.50;94.20
67974;DHT22;54756;51.140;6.952;2023-04-25T03:43:42;6.50;94.30
67974;DHT22;54756;51.140;6.952;2023-04-25T03:45:42;6.50;94.30
67974;DHT22;54756;51.140;6.952;2023-04-25T03:47:43;6.50;94.20
67974;DHT22;54756;51.140;6.952;2023-04-25T03:49:43;6.50;94.20
67974;DHT22;54756;51.140;6.952;2023-04-25T03:51:44;6.50;94.20
67974;DHT22;54756;51.140;6.952;2023-04-25T03:53:45;6.50;94.20
67974;DHT22;54756;51.140;6.952;2023-04-25T03:55:46;6.50;94.30
67974;DHT22;54756;51.140;6.952;2023-04-25T03:57:46;6.50;94.30
67974;DHT22;54756;51.140;6.952;2023-04-25T03:59:47;6.50;94.40
67974;DHT22;54756;51.140;6.952;2023-04-25T04:01:47;6.60;94.30
67974;DHT22;54756;51.140;6.952;2023-04-25T04:03:48;6.60;94.40
67974;DHT22;54756;51.140;6.952;2023-04-25T04:05:49;6.60;94.60
67974;DHT22;54756;51.140;6.952;2023-04-25T04:07:50;6.60;94.50
67974;DHT22;54756;51.140;6.952;2023-04-25T04:09:51;6.60;94.50
67974;DHT22;54756;51.140;6.952;2023-04-25T04:11:51;6.60;94.40
67974;DHT22;54756;51.140;6.952;2023-04-25T04:13:52;6.60;94.30
67974;DHT22;54756;51.140;6.952;2023-04-25T04:15:52;6.50;94.10
67974;DHT22;54756;51.140;6.952;2023-04-25T04:17:53;6.50;94.00
67974;DHT22;54756;51.140;6.952;2023-04-25T04:19:55;6.60;94.20
67974;DHT22;54756;51.140;6.952;2023-04-25T04:21:55;6.50;94.20
67974;DHT22;54756;51.140;6.952;2023-04-25T04:23:56;6.50;94.30
67974;DHT22;54756;51.140;6.952;2023-04-25T04:25:58;6.60;94.30
67974;DHT22;54756;51.140;6.952;2023-04-25T04:27:58;6.60;94.20
67974;DHT22;54756;51.140;6.952;2023-04-25T04:29:59;6.60;94.20
67974;DHT22;54756;51.140;6.952;2023-04-25T04:31:59;6.60;94.30
67974;DHT22;54756;51.140;6.952;2023-04-25T04:34:01;6.60;94.40
67974;DHT22;54756;51.140;6.952;2023-04-25T04:36:02;6.60;94.20
67974;DHT22;54756;51.140;6.952;2023-04-25T04:38:03;6.60;94.30
67974;DHT22;54756;51.140;6.952;2023-04-25T04:40:04;6.60;94.70
67974;DHT22;54756;51.140;6.952;2023-04-25T04:42:05;6.70;94.30
67974;DHT22;54756;51.140;6.952;2023-04-25T04:44:06;6.70;94.30
67974;DHT22;54756;51.140;6.952;2023-04-25T04:46:10;6.70;94.20
67974;DHT22;54756;51.140;6.952;2023-04-25T04:48:12;6.70;94.10
67974;DHT22;54756;51.140;6.952;2023-04-25T04:50:14;6.70;93.90
67974;DHT22;54756;51.140;6.952;2023-04-25T04:52:15;6.60;93.80
67974;DHT22;54756;51.140;6.952;2023-04-25T04:54:15;6.50;93.70
67974;DHT22;54756;51.140;6.952;2023-04-25T04:56:16;6.50;93.80
67974;DHT22;54756;51.140;6.952;2023-04-25T04:58:16;6.50;93.80
67974;DHT22;54756;51.140;6.952;2023-04-25T05:00:17;6.40;93.80
67974;DHT22;54756;51.140;6.952;2023-04-25T05:02:18;6.40;93.60
67974;DHT22;54756;51.140;6.952;2023-04-25T05:04:18;6.30;93.70
67974;DHT22;54756;51.140;6.952;2023-04-25T05:06:19;6.30;93.60
67974;DHT22;54756;51.140;6.952;2023-04-25T05:08:20;6.30;93.70
67974;DHT22;54756;51.140;6.952;2023-04-25T05:10:20;6.30;93.70
67974;DHT22;54756;51.140;6.952;2023-04-25T05:12:21;6.30;93.90
67974;DHT22;54756;51.140;6.952;2023-04-25T05:14:21;6.30;93.90
67974;DHT22;54756;51.140;6.952;2023-04-25T05:16:23;6.30;94.00
67974;DHT22;54756;51.140;6.952;2023-04-25T05:18:24;6.30;94.10
67974;DHT22;54756;51.140;6.952;2023-04-25T05:20:24;6.30;94.10
67974;DHT22;54756;51.140;6.952;2023-04-25T05:22:25;6.30;94.10
67974;DHT22;54756;51.140;6.952;2023-04-25T05:24:25;6.30;94.10
67974;DHT22;54756;51.140;6.952;2023-04-25T05:26:26;6.30;94.30
67974;DHT22;54756;51.140;6.952;2023-04-25T05:28:31;6.40;94.20
67974;DHT22;54756;51.140;6.952;2023-04-25T05:30:31;6.40;94.30
67974;DHT22;54756;51.140;6.952;2023-04-25T05:32:32;6.50;94.40
67974;DHT22;54756;51.140;6.952;2023-04-25T05:34:32;6.60;94.40
67974;DHT22;54756;51.140;6.952;2023-04-25T05:36:33;6.70;94.30
67974;DHT22;54756;51.140;6.952;2023-04-25T05:38:33;6.80;94.20
67974;DHT22;54756;51.140;6.952;2023-04-25T05:40:34;6.80;94.00
67974;DHT22;54756;51.140;6.952;2023-04-25T05:42:35;6.90;93.10
67974;DHT22;54756;51.140;6.952;2023-04-25T05:44:35;7.00;92.90
67974;DHT22;54756;51.140;6.952;2023-04-25T05:46:36;7.00;92.70
67974;DHT22;54756;51.140;6.952;2023-04-25T05:48:37;7.10;92.70
67974;DHT22;54756;51.140;6.952;2023-04-25T05:50:38;7.10;92.30
67974;DHT22;54756;51.140;6.952;2023-04-25T05:52:38;7.20;92.10
67974;DHT22;54756;51.140;6.952;2023-04-25T05:54:39;7.20;91.80
67974;DHT22;54756;51.140;6.952;2023-04-25T05:56:40;7.20;91.60
67974;DHT22;54756;51.140;6.952;2023-04-25T05:58:40;7.20;91.10
67974;DHT22;54756;51.140;6.952;2023-04-25T06:00:41;7.30;90.60
67974;DHT22;54756;51.140;6.952;2023-04-25T06:02:42;7.30;90.50
67974;DHT22;54756;51.140;6.952;2023-04-25T06:04:42;7.30;90.60
67974;DHT22;54756;51.140;6.952;2023-04-25T06:06:43;7.40;90.60
67974;DHT22;54756;51.140;6.952;2023-04-25T06:08:43;7.50;90.60
67974;DHT22;54756;51.140;6.952;2023-04-25T06:10:44;7.60;90.00
67974;DHT22;54756;51.140;6.952;2023-04-25T06:12:45;7.80;90.10
67974;DHT22;54756;51.140;6.952;2023-04-25T06:14:45;7.90;89.10
67974;DHT22;54756;51.140;6.952;2023-04-25T06:16:46;8.00;87.20
67974;DHT22;54756;51.140;6.952;2023-04-25T06:18:46;8.10;86.80
67974;DHT22;54756;51.140;6.952;2023-04-25T06:20:47;8.20;85.90
67974;DHT22;54756;51.140;6.952;2023-04-25T06:22:47;8.30;85.90
67974;DHT22;54756;51.140;6.952;2023-04-25T06:24:48;8.40;84.00
67974;DHT22;54756;51.140;6.952;2023-04-25T06:26:48;8.40;82.70
67974;DHT22;54756;51.140;6.952;2023-04-25T06:28:49;8.50;81.90
67974;DHT22;54756;51.140;6.952;2023-04-25T06:30:50;8.50;80.40
67974;DHT22;54756;51.140;6.952;2023-04-25T06:32:52;8.60;81.60
67974;DHT22;54756;51.140;6.952;2023-04-25T06:34:53;8.60;79.40
67974;DHT22;54756;51.140;6.952;2023-04-25T06:36:53;8.70;79.00
67974;DHT22;54756;51.140;6.952;2023-04-25T06:38:54;8.70;79.00
67974;DHT22;54756;51.140;6.952;2023-04-25T06:40:55;8.80;78.40
67974;DHT22;54756;51.140;6.952;2023-04-25T06:42:55;8.80;77.30
67974;DHT22;54756;51.140;6.952;2023-04-25T06:44:56;8.90;77.00
67974;DHT22;54756;51.140;6.952;2023-04-25T06:46:56;8.90;77.00
67974;DHT22;54756;51.140;6.952;2023-04-25T06:48:57;8.90;76.40
67974;DHT22;54756;51.140;6.952;2023-04-25T06:50:57;9.00;76.50
67974;DHT22;54756;51.140;6.952;2023-04-25T06:52:58;9.00;75.00
67974;DHT22;54756;51.140;6.952;2023-04-25T06:54:58;9.10;75.80
67974;DHT22;54756;51.140;6.952;2023-04-25T06:56:59;9.20;75.10
67974;DHT22;54756;51.140;6.952;2023-04-25T06:59:01;9.30;75.20
67974;DHT22;54756;51.140;6.952;2023-04-25T07:01:01;9.40;75.80
67974;DHT22;54756;51.140;6.952;2023-04-25T07:03:02;9.50;75.10
67974;DHT22;54756;51.140;6.952;2023-04-25T07:05:03;9.70;71.30
67974;DHT22;54756;51.140;6.952;2023-04-25T07:07:04;9.80;73.10
67974;DHT22;54756;51.140;6.952;2023-04-25T07:09:05;9.90;67.80
67974;DHT22;54756;51.140;6.952;2023-04-25T07:11:05;9.90;66.90
67974;DHT22;54756;51.140;6.952;2023-04-25T07:13:06;9.90;63.80
67974;DHT22;54756;51.140;6.952;2023-04-25T07:15:07;9.90;60.30
67974;DHT22;54756;51.140;6.952;2023-04-25T07:17:10;9.90;59.30
67974;DHT22;54756;51.140;6.952;2023-04-25T07:19:10;9.90;61.10
67974;DHT22;54756;51.140;6.952;2023-04-25T07:21:11;9.90;58.50
67974;DHT22;54756;51.140;6.952;2023-04-25T07:23:12;9.90;58.80
67974;DHT22;54756;51.140;6.952;2023-04-25T07:25:12;10.00;57.50
67974;DHT22;54756;51.140;6.952;2023-04-25T07:27:13;10.10;55.90
67974;DHT22;54756;51.140;6.952;2023-04-25T07:29:13;10.10;55.00
67974;DHT22;54756;51.140;6.952;2023-04-25T07:31:14;10.20;55.50
67974;DHT22;54756;51.140;6.952;2023-04-25T07:33:17;10.20;51.10
67974;DHT22;54756;51.140;6.952;2023-04-25T07:35:17;10.30;51.50
67974;DHT22;54756;51.140;6.952;2023-04-25T07:37:18;10.40;52.40
67974;DHT22;54756;51.140;6.952;2023-04-25T07:39:21;10.60;53.90
67974;DHT22;54756;51.140;6.952;2023-04-25T07:41:23;10.80;49.60
67974;DHT22;54756;51.140;6.952;2023-04-25T07:43:23;11.00;45.70
67974;DHT22;54756;51.140;6.952;2023-04-25T07:45:24;11.00;41.20
67974;DHT22;54756;51.140;6.952;2023-04-25T07:47:24;11.10;42.30
67974;DHT22;54756;51.140;6.952;2023-04-25T07:49:25;11.10;42.70
67974;DHT22;54756;51.140;6.952;2023-04-25T07:51:26;11.20;41.00
67974;DHT22;54756;51.140;6.952;2023-04-25T07:53:26;11.10;36.90
67974;DHT22;54756;51.140;6.952;2023-04-25T07:55:27;11.10;40.90
67974;DHT22;54756;51.140;6.952;2023-04-25T07:57:29;11.00;42.10
67974;DHT22;54756;51.140;6.952;2023-04-25T07:59:29;11.00;39.00
67974;DHT22;54756;51.140;6.952;2023-04-25T08:01:30;10.80;37.60
67974;DHT22;54756;51.140;6.952;2023-04-25T08:03:31;10.70;39.80
67974;DHT22;54756;51.140;6.952;2023-04-25T08:05:31;10.50;42.30
67974;DHT22;54756;51.140;6.952;2023-04-25T08:07:32;10.40;41.80
67974;DHT22;54756;51.140;6.952;2023-04-25T08:09:32;10.30;42.20
67974;DHT22;54756;51.140;6.952;2023-04-25T08:11:37;10.10;42.90
67974;DHT22;54756;51.140;6.952;2023-04-25T08:13:37;10.10;43.20
67974;DHT22;54756;51.140;6.952;2023-04-25T08:15:38;10.00;42.70
67974;DHT22;54756;51.140;6.952;2023-04-25T08:17:38;9.90;44.50
67974;DHT22;54756;51.140;6.952;2023-04-25T08:19:39;9.90;47.10
67974;DHT22;54756;51.140;6.952;2023-04-25T08:21:40;9.90;47.60
67974;DHT22;54756;51.140;6.952;2023-04-25T08:23:40;9.90;47.30
67974;DHT22;54756;51.140;6.952;2023-04-25T08:25:41;9.90;48.00
67974;DHT22;54756;51.140;6.952;2023-04-25T08:27:41;9.80;47.20
67974;DHT22;54756;51.140;6.952;2023-04-25T08:29:42;9.80;47.20
67974;DHT22;54756;51.140;6.952;2023-04-25T08:31:43;9.70;48.60
67974;DHT22;54756;51.140;6.952;2023-04-25T08:33:43;9.70;48.60
67974;DHT22;54756;51.140;6.952;2023-04-25T08:35:45;9.70;46.20
67974;DHT22;54756;51.140;6.952;2023-04-25T08:37:46;9.80;46.20
67974;DHT22;54756;51.140;6.952;2023-04-25T08:39:46;10.00;45.30
67974;DHT22;54756;51.140;6.952;2023-04-25T08:41:48;10.10;42.60
67974;DHT22;54756;51.140;6.952;2023-04-25T08:43:49;10.30;44.00
67974;DHT22;54756;51.140;6.952;2023-04-25T08:45:53;10.50;41.40
67974;DHT22;54756;51.140;6.952;2023-04-25T08:47:57;10.70;39.00
67974;DHT22;54756;51.140;6.952;2023-04-25T08:49:59;10.90;34.10
67974;DHT22;54756;51.140;6.952;2023-04-25T08:52:02;11.10;34.60
67974;DHT22;54756;51.140;6.952;2023-04-25T08:54:11;11.30;33.70
67974;DHT22;54756;51.140;6.952;2023-04-25T08:56:12;11.40;29.00
67974;DHT22;54756;51.140;6.952;2023-04-25T08:58:18;11.30;27.40
67974;DHT22;54756;51.140;6.952;2023-04-25T09:00:20;11.30;29.20
67974;DHT22;54756;51.140;6.952;2023-04-25T09:02:21;11.20;29.60
67974;DHT22;54756;51.140;6.952;2023-04-25T09:04:22;11.20;28.80
67974;DHT22;54756;51.140;6.952;2023-04-25T09:06:23;11.20;27.80
67974;DHT22;54756;51.140;6.952;2023-04-25T09:08:24;11.20;29.40
67974;DHT22;54756;51.140;6.952;2023-04-25T09:10:25;11.30;32.80
67974;DHT22;54756;51.140;6.952;2023-04-25T09:12:25;11.40;31.00
67974;DHT22;54756;51.140;6.952;2023-04-25T09:14:27;11.50;29.10
67974;DHT22;54756;51.140;6.952;2023-04-25T09:16:28;11.50;29.40
67974;DHT22;54756;51.140;6.952;2023-04-25T09:18:30;11.70;27.60
67974;DHT22;54756;51.140;6.952;2023-04-25T09:20:31;11.90;17.90
67974;DHT22;54756;51.140;6.952;2023-04-25T09:22:32;12.00;20.50
67974;DHT22;54756;51.140;6.952;2023-04-25T09:24:44;12.30;17.70
67974;DHT22;54756;51.140;6.952;2023-04-25T09:26:46;12.60;1.00
67974;DHT22;54756;51.140;6.952;2023-04-25T09:28:46;12.70;3.80
67974;DHT22;54756;51.140;6.952;2023-04-25T09:30:48;12.80;1.00
67974;DHT22;54756;51.140;6.952;2023-04-25T09:32:48;12.80;1.00
67974;DHT22;54756;51.140;6.952;2023-04-25T09:34:50;12.70;1.00
67974;DHT22;54756;51.140;6.952;2023-04-25T09:36:54;12.80;2.20
67974;DHT22;54756;51.140;6.952;2023-04-25T09:38:55;12.90;4.40
67974;DHT22;54756;51.140;6.952;2023-04-25T09:40:56;13.20;1.00
67974;DHT22;54756;51.140;6.952;2023-04-25T09:42:57;13.40;1.00
67974;DHT22;54756;51.140;6.952;2023-04-25T09:45:00;13.50;1.00
67974;DHT22;54756;51.140;6.952;2023-04-25T09:47:04;13.60;1.00
67974;DHT22;54756;51.140;6.952;2023-04-25T09:49:08;13.60;1.00
67974;DHT22;54756;51.140;6.952;2023-04-25T09:51:11;13.50;1.00
67974;DHT22;54756;51.140;6.952;2023-04-25T09:53:13;13.40;1.00
67974;DHT22;54756;51.140;6.952;2023-04-25T09:55:15;13.40;1.00
67974;DHT22;54756;51.140;6.952;2023-04-25T09:57:23;13.40;1.00
67974;DHT22;54756;51.140;6.952;2023-04-25T09:59:24;13.50;1.00
67974;DHT22;54756;51.140;6.952;2023-04-25T10:01:26;13.50;1.00
67974;DHT22;54756;51.140;6.952;2023-04-25T10:03:31;13.90;1.00
67974;DHT22;54756;51.140;6.952;2023-04-25T10:05:34;14.50;1.00
67974;DHT22;54756;51.140;6.952;2023-04-25T10:07:36;15.00;1.00
67974;DHT22;54756;51.140;6.952;2023-04-25T10:09:39;15.30;1.00
67974;DHT22;54756;51.140;6.952;2023-04-25T10:11:40;15.10;1.00
67974;DHT22;54756;51.140;6.952;2023-04-25T10:13:41;14.80;1.00
67974;DHT22;54756;51.140;6.952;2023-04-25T10:15:43;14.50;1.00
67974;DHT22;54756;51.140;6.952;2023-04-25T10:17:43;14.30;1.00
67974;DHT22;54756;51.140;6.952;2023-04-25T10:19:45;14.00;1.00
67974;DHT22;54756;51.140;6.952;2023-04-25T10:22:34;13.70;1.00
67974;DHT22;54756;51.140;6.952;2023-04-25T10:24:09;13.40;1.00
67974;DHT22;54756;51.140;6.952;2023-04-25T10:26:10;13.20;1.00
67974;DHT22;54756;51.140;6.952;2023-04-25T10:28:13;13.00;1.00
67974;DHT22;54756;51.140;6.952;2023-04-25T10:30:14;13.00;1.00
67974;DHT22;54756;51.140;6.952;2023-04-25T10:32:15;13.00;1.00
67974;DHT22;54756;51.140;6.952;2023-04-25T10:34:17;13.10;1.00
67974;DHT22;54756;51.140;6.952;2023-04-25T10:36:19;13.20;1.00
67974;DHT22;54756;51.140;6.952;2023-04-25T10:38:21;13.40;1.00
67974;DHT22;54756;51.140;6.952;2023-04-25T10:40:22;13.50;1.00
67974;DHT22;54756;51.140;6.952;2023-04-25T10:42:23;13.80;1.00
67974;DHT22;54756;51.140;6.952;2023-04-25T10:44:30;14.10;1.00
67974;DHT22;54756;51.140;6.952;2023-04-25T10:46:33;14.30;1.00
67974;DHT22;54756;51.140;6.952;2023-04-25T10:48:35;14.40;1.00
67974;DHT22;54756;51.140;6.952;2023-04-25T10:50:39;14.30;1.00
67974;DHT22;54756;51.140;6.952;2023-04-25T10:52:40;14.10;1.00
67974;DHT22;54756;51.140;6.952;2023-04-25T10:54:57;14.00;1.00
67974;DHT22;54756;51.140;6.952;2023-04-25T10:56:58;14.00;1.00
67974;DHT22;54756;51.140;6.952;2023-04-25T10:59:07;14.00;1.00
67974;DHT22;54756;51.140;6.952;2023-04-25T11:01:08;14.10;1.00
67974;DHT22;54756;51.140;6.952;2023-04-25T11:03:08;14.20;1.00
67974;DHT22;54756;51.140;6.952;2023-04-25T11:05:09;14.40;1.00
67974;DHT22;54756;51.140;6.952;2023-04-25T11:09:45;15.10;1.00
67974;DHT22;54756;51.140;6.952;2023-04-25T11:11:56;15.40;1.00
67974;DHT22;54756;51.140;6.952;2023-04-25T11:13:57;15.60;1.00
67974;DHT22;54756;51.140;6.952;2023-04-25T11:15:58;15.90;1.00
67974;DHT22;54756;51.140;6.952;2023-04-25T11:17:59;16.10;1.00
67974;DHT22;54756;51.140;6.952;2023-04-25T11:20:00;16.50;1.00
67974;DHT22;54756;51.140;6.952;2023-04-25T11:22:02;16.90;1.00
67974;DHT22;54756;51.140;6.952;2023-04-25T11:24:04;17.40;1.00
67974;DHT22;54756;51.140;6.952;2023-04-25T11:26:04;17.60;1.00
67974;DHT22;54756;51.140;6.952;2023-04-25T11:28:05;18.10;99.90
67974;DHT22;54756;51.140;6.952;2023-04-25T11:30:15;18.30;1.00
67974;DHT22;54756;51.140;6.952;2023-04-25T11:32:17;18.30;1.00
67974;DHT22;54756;51.140;6.952;2023-04-25T11:34:18;19.30;80.10
67974;DHT22;54756;51.140;6.952;2023-04-25T11:36:19;20.70;99.90
67974;DHT22;54756;51.140;6.952;2023-04-25T11:38:20;21.40;99.90
67974;DHT22;54756;51.140;6.952;2023-04-25T11:40:20;22.50;99.90
67974;DHT22;54756;51.140;6.952;2023-04-25T11:42:21;23.80;1.00
67974;DHT22;54756;51.140;6.952;2023-04-25T11:44:22;24.20;1.00
67974;DHT22;54756;51.140;6.952;2023-04-25T11:46:22;24.20;1.00
67974;DHT22;54756;51.140;6.952;2023-04-25T11:48:23;24.50;1.00
67974;DHT22;54756;51.140;6.952;2023-04-25T11:50:24;24.00;99.90
67974;DHT22;54756;51.140;6.952;2023-04-25T11:52:24;23.20;5.50
67974;DHT22;54756;51.140;6.952;2023-04-25T11:54:25;22.60;99.90
67974;DHT22;54756;51.140;6.952;2023-04-25T11:56:26;23.20;1.00
67974;DHT22;54756;51.140;6.952;2023-04-25T11:58:27;24.50;1.00
67974;DHT22;54756;51.140;6.952;2023-04-25T12:00:28;25.80;1.00
67974;DHT22;54756;51.140;6.952;2023-04-25T12:02:28;25.80;1.00
67974;DHT22;54756;51.140;6.952;2023-04-25T12:04:30;25.40;1.00
67974;DHT22;54756;51.140;6.952;2023-04-25T12:06:32;24.80;1.00
67974;DHT22;54756;51.140;6.952;2023-04-25T12:08:32;24.60;1.00
67974;DHT22;54756;51.140;6.952;2023-04-25T12:10:37;24.30;1.00
67974;DHT22;54756;51.140;6.952;2023-04-25T12:12:41;24.30;1.00
67974;DHT22;54756;51.140;6.952;2023-04-25T12:14:46;24.70;1.00
67974;DHT22;54756;51.140;6.952;2023-04-25T12:16:48;25.20;1.00
67974;DHT22;54756;51.140;6.952;2023-04-25T12:18:51;26.00;99.90
67974;DHT22;54756;51.140;6.952;2023-04-25T12:20:53;25.10;99.90
67974;DHT22;54756;51.140;6.952;2023-04-25T12:22:54;24.30;99.90
67974;DHT22;54756;51.140;6.952;2023-04-25T12:24:57;22.90;1.00
67974;DHT22;54756;51.140;6.952;2023-04-25T12:27:03;21.60;1.00
67974;DHT22;54756;51.140;6.952;2023-04-25T12:29:15;20.20;53.70
67974;DHT22;54756;51.140;6.952;2023-04-25T12:31:16;19.10;1.00
67974;DHT22;54756;51.140;6.952;2023-04-25T12:33:16;18.60;1.00
67974;DHT22;54756;51.140;6.952;2023-04-25T12:35:17;18.00;1.00
67974;DHT22;54756;51.140;6.952;2023-04-25T12:37:18;17.50;1.00
67974;DHT22;54756;51.140;6.952;2023-04-25T12:39:20;17.00;1.00
67974;DHT22;54756;51.140;6.952;2023-04-25T12:41:22;16.60;1.00
67974;DHT22;54756;51.140;6.952;2023-04-25T12:43:22;16.20;1.00
67974;DHT22;54756;51.140;6.952;2023-04-25T12:45:23;16.00;1.00
67974;DHT22;54756;51.140;6.952;2023-04-25T12:47:24;15.80;1.00
67974;DHT22;54756;51.140;6.952;2023-04-25T12:49:24;15.60;1.00
67974;DHT22;54756;51.140;6.952;2023-04-25T12:51:25;15.60;1.00
67974;DHT22;54756;51.140;6.952;2023-04-25T12:53:28;15.90;1.00
67974;DHT22;54756;51.140;6.952;2023-04-25T12:55:28;16.20;1.00
67974;DHT22;54756;51.140;6.952;2023-04-25T12:57:29;16.80;1.00
67974;DHT22;54756;51.140;6.952;2023-04-25T12:59:30;17.10;1.00